createdAt,value
2018-01-13T00:00:59.120Z,0
2018-01-13T00:02:01.534Z,0
2018-01-13T00:03:03.930Z,0
2018-01-13T00:04:06.351Z,0
2018-01-13T00:05:08.760Z,0
2018-01-13T00:06:11.486Z,0
2018-01-13T00:07:13.896Z,0
2018-01-13T00:08:16.304Z,0
2018-01-13T00:09:18.710Z,0
2018-01-13T00:10:21.117Z,0
2018-01-13T00:11:23.517Z,0
2018-01-13T00:12:25.925Z,0
2018-01-13T00:13:28.340Z,0
2018-01-13T00:14:31.324Z,0
2018-01-13T00:15:33.730Z,0
2018-01-13T00:16:36.136Z,0
2018-01-13T00:17:38.546Z,0
2018-01-13T00:18:41.247Z,0
2018-01-13T00:19:43.940Z,0
2018-01-13T00:20:46.352Z,0
2018-01-13T00:21:48.769Z,0
2018-01-13T00:22:51.175Z,0
2018-01-13T00:23:53.585Z,0
2018-01-13T00:24:55.986Z,0
2018-01-13T00:25:58.393Z,0
2018-01-13T00:27:00.808Z,0
2018-01-13T00:28:03.494Z,0
2018-01-13T00:29:05.908Z,0
2018-01-13T00:30:08.310Z,0
2018-01-13T00:31:10.720Z,0
2018-01-13T00:32:13.141Z,0
2018-01-13T00:33:15.543Z,0
2018-01-13T00:34:17.956Z,0
2018-01-13T00:35:20.374Z,0
2018-01-13T00:36:22.768Z,0
2018-01-13T00:37:25.166Z,0
2018-01-13T00:38:27.860Z,0
2018-01-13T00:39:30.253Z,0
2018-01-13T00:40:32.662Z,0
2018-01-13T00:41:35.355Z,0
2018-01-13T00:42:38.043Z,0
2018-01-13T00:43:40.454Z,0
2018-01-13T00:44:42.859Z,0
2018-01-13T00:45:45.551Z,0
2018-01-13T00:46:47.971Z,0
2018-01-13T00:47:50.377Z,0
2018-01-13T00:48:52.779Z,0
2018-01-13T00:49:55.191Z,0
2018-01-13T00:50:57.882Z,0
2018-01-13T00:52:00.286Z,0
2018-01-13T00:53:02.695Z,0
2018-01-13T00:54:05.098Z,0
2018-01-13T00:55:07.499Z,0
2018-01-13T00:56:09.922Z,0
2018-01-13T00:57:12.329Z,0
2018-01-13T00:58:14.730Z,0
2018-01-13T00:59:17.439Z,0
2018-01-13T01:00:20.134Z,0
2018-01-13T01:01:22.532Z,0
2018-01-13T01:02:24.934Z,0
2018-01-13T01:03:27.359Z,0
2018-01-13T01:04:29.763Z,0
2018-01-13T01:05:32.166Z,0
2018-01-13T01:06:34.576Z,0
2018-01-13T01:07:36.977Z,0
2018-01-13T01:08:39.393Z,0
2018-01-13T01:09:41.804Z,0
2018-01-13T01:10:44.203Z,0
2018-01-13T01:11:46.615Z,0
2018-01-13T01:12:49.021Z,0
2018-01-13T01:13:51.428Z,0
2018-01-13T01:14:53.844Z,0
2018-01-13T01:15:56.251Z,0
2018-01-13T01:16:58.939Z,0
2018-01-13T01:18:01.344Z,0
2018-01-13T01:19:03.780Z,0
2018-01-13T01:20:06.191Z,0
2018-01-13T01:21:08.608Z,0
2018-01-13T01:22:11.279Z,0
2018-01-13T01:23:13.689Z,0
2018-01-13T01:24:16.097Z,0
2018-01-13T01:25:18.517Z,0
2018-01-13T01:26:20.929Z,0
2018-01-13T01:27:23.342Z,0
2018-01-13T01:28:25.754Z,0
2018-01-13T01:29:28.155Z,0
2018-01-13T01:30:30.905Z,0
2018-01-13T01:31:33.310Z,0
2018-01-13T01:32:35.714Z,0
2018-01-13T01:33:38.124Z,0
2018-01-13T01:34:40.537Z,0
2018-01-13T01:35:42.932Z,0
2018-01-13T01:36:45.348Z,0
2018-01-13T01:37:47.751Z,0
2018-01-13T01:38:50.453Z,0
2018-01-13T01:39:52.857Z,0
2018-01-13T01:40:55.274Z,0
2018-01-13T01:41:57.669Z,0
2018-01-13T01:43:00.081Z,0
2018-01-13T01:44:02.774Z,0
2018-01-13T01:45:05.178Z,0
2018-01-13T01:46:07.595Z,0
2018-01-13T01:47:09.997Z,0
2018-01-13T01:48:12.397Z,0
2018-01-13T01:49:15.096Z,0
2018-01-13T01:50:17.508Z,0
2018-01-13T01:51:19.911Z,0
2018-01-13T01:52:22.323Z,0
2018-01-13T01:53:24.720Z,0
2018-01-13T01:54:27.130Z,0
2018-01-13T01:55:29.542Z,0
2018-01-13T01:56:31.950Z,0
2018-01-13T01:57:34.354Z,0
2018-01-13T01:58:36.757Z,0
2018-01-13T01:59:39.159Z,0
2018-01-13T02:00:41.577Z,0
2018-01-13T02:01:43.984Z,0
2018-01-13T02:02:46.379Z,0
2018-01-13T02:03:48.791Z,0
2018-01-13T02:04:51.195Z,0
2018-01-13T02:05:53.888Z,0
2018-01-13T02:06:56.306Z,0
2018-01-13T02:07:58.701Z,0
2018-01-13T02:09:01.104Z,0
2018-01-13T02:10:03.528Z,0
2018-01-13T02:11:05.931Z,0
2018-01-13T02:12:08.906Z,0
2018-01-13T02:13:11.309Z,0
2018-01-13T02:14:13.721Z,0
2018-01-13T02:15:16.136Z,0
2018-01-13T02:16:18.542Z,0
2018-01-13T02:17:21.232Z,0
2018-01-13T02:18:23.925Z,0
2018-01-13T02:19:26.349Z,0
2018-01-13T02:20:28.748Z,0
2018-01-13T02:21:31.158Z,0
2018-01-13T02:22:33.556Z,0
2018-01-13T02:23:36.273Z,0
2018-01-13T02:24:38.688Z,0
2018-01-13T02:25:41.089Z,0
2018-01-13T02:26:43.763Z,0
2018-01-13T02:27:46.167Z,0
2018-01-13T02:28:48.566Z,0
2018-01-13T02:29:50.979Z,0
2018-01-13T02:30:53.382Z,0
2018-01-13T02:31:55.792Z,0
2018-01-13T02:32:58.493Z,0
2018-01-13T02:34:00.892Z,0
2018-01-13T02:35:03.308Z,0
2018-01-13T02:36:05.716Z,0
2018-01-13T02:37:08.122Z,0
2018-01-13T02:38:10.522Z,0
2018-01-13T02:39:12.925Z,0
2018-01-13T02:40:15.327Z,0
2018-01-13T02:41:17.747Z,0
2018-01-13T02:42:20.145Z,0
2018-01-13T02:43:22.563Z,0
2018-01-13T02:44:24.967Z,0
2018-01-13T02:45:27.669Z,0
2018-01-13T02:46:30.076Z,0
2018-01-13T02:47:32.483Z,0
2018-01-13T02:48:35.171Z,0
2018-01-13T02:49:37.580Z,0
2018-01-13T02:50:39.993Z,0
2018-01-13T02:51:42.405Z,0
2018-01-13T02:52:44.811Z,0
2018-01-13T02:53:47.223Z,0
2018-01-13T02:54:49.627Z,0
2018-01-13T02:55:52.037Z,0
2018-01-13T02:56:54.443Z,0
2018-01-13T02:57:56.842Z,0
2018-01-13T02:58:59.249Z,0
2018-01-13T03:00:01.660Z,0
2018-01-13T03:01:04.069Z,0
2018-01-13T03:02:06.478Z,0
2018-01-13T03:03:08.884Z,0
2018-01-13T03:04:11.295Z,0
2018-01-13T03:05:13.980Z,0
2018-01-13T03:06:17.006Z,0
2018-01-13T03:07:19.398Z,0
2018-01-13T03:08:21.817Z,0
2018-01-13T03:09:24.218Z,0
2018-01-13T03:10:26.618Z,0
2018-01-13T03:11:29.032Z,0
2018-01-13T03:12:31.432Z,0
2018-01-13T03:13:33.843Z,0
2018-01-13T03:14:36.244Z,0
2018-01-13T03:15:38.958Z,0
2018-01-13T03:16:41.358Z,0
2018-01-13T03:17:43.756Z,0
2018-01-13T03:18:46.482Z,0
2018-01-13T03:19:48.882Z,0
2018-01-13T03:20:51.287Z,0
2018-01-13T03:21:53.686Z,0
2018-01-13T03:22:56.093Z,0
2018-01-13T03:23:58.489Z,0
2018-01-13T03:25:00.906Z,0
2018-01-13T03:26:03.303Z,0
2018-01-13T03:27:05.711Z,0
2018-01-13T03:28:08.117Z,0
2018-01-13T03:29:10.524Z,0
2018-01-13T03:30:12.927Z,0
2018-01-13T03:31:15.340Z,0
2018-01-13T03:32:17.733Z,0
2018-01-13T03:33:20.145Z,0
2018-01-13T03:34:22.548Z,0
2018-01-13T03:35:24.952Z,0
2018-01-13T03:36:27.362Z,0
2018-01-13T03:37:29.760Z,0
2018-01-13T03:38:32.452Z,0
2018-01-13T03:39:34.864Z,0
2018-01-13T03:40:37.274Z,0
2018-01-13T03:41:39.668Z,0
2018-01-13T03:42:42.095Z,0
2018-01-13T03:43:44.782Z,0
2018-01-13T03:44:47.459Z,0
2018-01-13T03:45:49.869Z,0
2018-01-13T03:46:52.270Z,0
2018-01-13T03:47:54.682Z,0
2018-01-13T03:48:57.088Z,0
2018-01-13T03:49:59.484Z,0
2018-01-13T03:51:02.185Z,0
2018-01-13T03:52:04.595Z,0
2018-01-13T03:53:06.998Z,0
2018-01-13T03:54:09.687Z,0
2018-01-13T03:55:12.097Z,0
2018-01-13T03:56:14.503Z,0
2018-01-13T03:57:16.913Z,0
2018-01-13T03:58:19.325Z,0
2018-01-13T03:59:22.007Z,0
2018-01-13T04:00:24.696Z,0
2018-01-13T04:01:27.387Z,0
2018-01-13T04:02:29.791Z,0
2018-01-13T04:03:32.203Z,0
2018-01-13T04:04:34.885Z,0
2018-01-13T04:05:37.295Z,0
2018-01-13T04:06:39.707Z,0
2018-01-13T04:07:42.118Z,0
2018-01-13T04:08:44.518Z,0
2018-01-13T04:09:46.925Z,0
2018-01-13T04:10:49.335Z,0
2018-01-13T04:11:51.746Z,0
2018-01-13T04:12:54.159Z,0
2018-01-13T04:13:56.550Z,0
2018-01-13T04:14:58.952Z,0
2018-01-13T04:16:01.964Z,0
2018-01-13T04:17:04.652Z,0
2018-01-13T04:18:07.339Z,0
2018-01-13T04:19:10.024Z,0
2018-01-13T04:20:12.423Z,0
2018-01-13T04:21:14.839Z,0
2018-01-13T04:22:17.261Z,0
2018-01-13T04:23:19.945Z,0
2018-01-13T04:24:22.359Z,0
2018-01-13T04:25:24.764Z,0
2018-01-13T04:26:27.173Z,0
2018-01-13T04:27:29.584Z,0
2018-01-13T04:28:31.988Z,0
2018-01-13T04:29:34.964Z,0
2018-01-13T04:30:37.364Z,0
2018-01-13T04:31:39.763Z,0
2018-01-13T04:32:42.187Z,0
2018-01-13T04:33:44.585Z,0
2018-01-13T04:34:46.994Z,0
2018-01-13T04:35:49.399Z,0
2018-01-13T04:36:51.801Z,0
2018-01-13T04:37:54.212Z,0
2018-01-13T04:38:56.614Z,0
2018-01-13T04:39:59.299Z,0
2018-01-13T04:41:01.719Z,0
2018-01-13T04:42:04.125Z,0
2018-01-13T04:43:06.525Z,0
2018-01-13T04:44:08.933Z,0
2018-01-13T04:45:11.332Z,0
2018-01-13T04:46:13.736Z,0
2018-01-13T04:47:16.441Z,0
2018-01-13T04:48:19.117Z,0
2018-01-13T04:49:21.530Z,0
2018-01-13T04:50:23.937Z,0
2018-01-13T04:51:26.634Z,0
2018-01-13T04:52:29.036Z,0
2018-01-13T04:53:31.725Z,0
2018-01-13T04:54:34.123Z,0
2018-01-13T04:55:36.528Z,0
2018-01-13T04:56:38.947Z,0
2018-01-13T04:57:41.360Z,0
2018-01-13T04:58:43.750Z,0
2018-01-13T04:59:46.451Z,0
2018-01-13T05:00:48.854Z,0
2018-01-13T05:01:51.258Z,0
2018-01-13T05:02:53.948Z,0
2018-01-13T05:03:56.354Z,0
2018-01-13T05:04:58.754Z,0
2018-01-13T05:06:01.170Z,0
2018-01-13T05:07:03.848Z,0
2018-01-13T05:08:06.528Z,0
2018-01-13T05:09:08.940Z,0
2018-01-13T05:10:11.340Z,0
2018-01-13T05:11:13.759Z,0
2018-01-13T05:12:16.443Z,0
2018-01-13T05:13:19.148Z,0
2018-01-13T05:14:21.560Z,0
2018-01-13T05:15:23.964Z,0
2018-01-13T05:16:26.648Z,0
2018-01-13T05:17:29.327Z,0
2018-01-13T05:18:31.733Z,0
2018-01-13T05:19:34.131Z,0
2018-01-13T05:20:36.559Z,0
2018-01-13T05:21:38.951Z,0
2018-01-13T05:22:41.359Z,0
2018-01-13T05:23:43.775Z,0
2018-01-13T05:24:46.180Z,0
2018-01-13T05:25:48.588Z,0
2018-01-13T05:26:51.001Z,0
2018-01-13T05:27:53.400Z,0
2018-01-13T05:28:55.813Z,0
2018-01-13T05:29:58.215Z,0
2018-01-13T05:31:00.629Z,0
2018-01-13T05:32:03.043Z,0
2018-01-13T05:33:05.444Z,0
2018-01-13T05:34:07.853Z,0
2018-01-13T05:35:10.251Z,0
2018-01-13T05:36:12.940Z,0
2018-01-13T05:37:15.340Z,0
2018-01-13T05:38:18.026Z,0
2018-01-13T05:39:20.436Z,0
2018-01-13T05:40:23.123Z,0
2018-01-13T05:41:25.532Z,0
2018-01-13T05:42:27.938Z,0
2018-01-13T05:43:30.347Z,0
2018-01-13T05:44:33.311Z,0
2018-01-13T05:45:35.726Z,0
2018-01-13T05:46:38.407Z,0
2018-01-13T05:47:40.815Z,0
2018-01-13T05:48:43.226Z,0
2018-01-13T05:49:45.628Z,0
2018-01-13T05:50:48.041Z,0
2018-01-13T05:51:50.446Z,0
2018-01-13T05:52:52.845Z,0
2018-01-13T05:53:55.246Z,0
2018-01-13T05:54:57.662Z,0
2018-01-13T05:56:00.057Z,0
2018-01-13T05:57:02.467Z,0
2018-01-13T05:58:04.879Z,0
2018-01-13T05:59:07.277Z,0
2018-01-13T06:00:09.679Z,0
2018-01-13T06:01:12.088Z,0
2018-01-13T06:02:14.487Z,0
2018-01-13T06:03:16.901Z,0
2018-01-13T06:04:19.587Z,0
2018-01-13T06:05:21.989Z,0
2018-01-13T06:06:24.401Z,0
2018-01-13T06:07:26.811Z,0
2018-01-13T06:08:29.212Z,0
2018-01-13T06:09:31.622Z,0
2018-01-13T06:10:34.019Z,0
2018-01-13T06:11:36.434Z,0
2018-01-13T06:12:38.843Z,0
2018-01-13T06:13:41.239Z,0
2018-01-13T06:14:43.652Z,0
2018-01-13T06:15:46.058Z,0
2018-01-13T06:16:48.466Z,0
2018-01-13T06:17:51.159Z,0
2018-01-13T06:18:53.555Z,0
2018-01-13T06:19:55.966Z,0
2018-01-13T06:20:58.365Z,0
2018-01-13T06:22:00.769Z,0
2018-01-13T06:23:03.179Z,0
2018-01-13T06:24:05.579Z,0
2018-01-13T06:25:08.274Z,0
2018-01-13T06:26:10.680Z,0
2018-01-13T06:27:13.081Z,0
2018-01-13T06:28:15.478Z,0
2018-01-13T06:29:17.898Z,0
2018-01-13T06:30:20.302Z,0
2018-01-13T06:31:22.696Z,0
2018-01-13T06:32:25.106Z,0
2018-01-13T06:33:27.797Z,0
2018-01-13T06:34:30.204Z,0
2018-01-13T06:35:32.618Z,0
2018-01-13T06:36:35.012Z,0
2018-01-13T06:37:37.413Z,0
2018-01-13T06:38:39.834Z,0
2018-01-13T06:39:42.240Z,0
2018-01-13T06:40:44.643Z,0
2018-01-13T06:41:47.047Z,0
2018-01-13T06:42:49.446Z,0
2018-01-13T06:43:51.866Z,0
2018-01-13T06:44:54.271Z,0
2018-01-13T06:45:56.674Z,0
2018-01-13T06:46:59.077Z,0
2018-01-13T06:48:01.478Z,0
2018-01-13T06:49:03.884Z,0
2018-01-13T06:50:06.290Z,0
2018-01-13T06:51:08.686Z,4
2018-01-13T06:52:11.376Z,0
2018-01-13T06:53:13.790Z,4
2018-01-13T06:54:16.195Z,4
2018-01-13T06:55:18.597Z,4
2018-01-13T06:56:21.004Z,4
2018-01-13T06:57:23.413Z,4
2018-01-13T06:58:26.100Z,4
2018-01-13T06:59:28.509Z,4
2018-01-13T07:00:30.909Z,4
2018-01-13T07:01:33.313Z,8
2018-01-13T07:02:35.732Z,8
2018-01-13T07:03:38.138Z,8
2018-01-13T07:04:40.542Z,12
2018-01-13T07:05:42.950Z,12
2018-01-13T07:06:45.351Z,16
2018-01-13T07:07:47.764Z,20
2018-01-13T07:08:50.185Z,24
2018-01-13T07:09:52.848Z,24
2018-01-13T07:10:55.259Z,28
2018-01-13T07:11:57.665Z,32
2018-01-13T07:13:00.067Z,32
2018-01-13T07:14:02.484Z,36
2018-01-13T07:15:04.885Z,40
2018-01-13T07:16:07.288Z,44
2018-01-13T07:17:09.705Z,44
2018-01-13T07:18:12.110Z,52
2018-01-13T07:19:14.504Z,60
2018-01-13T07:20:16.914Z,68
2018-01-13T07:21:19.316Z,84
2018-01-13T07:22:21.725Z,88
2018-01-13T07:23:24.131Z,96
2018-01-13T07:24:26.542Z,100
2018-01-13T07:25:29.002Z,108
2018-01-13T07:26:31.347Z,124
2018-01-13T07:27:33.759Z,136
2018-01-13T07:28:36.161Z,152
2018-01-13T07:29:38.572Z,164
2018-01-13T07:30:40.967Z,168
2018-01-13T07:31:43.376Z,184
2018-01-13T07:32:45.782Z,192
2018-01-13T07:33:48.196Z,212
2018-01-13T07:34:50.604Z,220
2018-01-13T07:35:53.009Z,228
2018-01-13T07:36:55.412Z,232
2018-01-13T07:37:57.824Z,256
2018-01-13T07:39:00.233Z,268
2018-01-13T07:40:02.643Z,304
2018-01-13T07:41:05.038Z,328
2018-01-13T07:42:07.446Z,360
2018-01-13T07:43:09.856Z,368
2018-01-13T07:44:12.267Z,380
2018-01-13T07:45:14.672Z,404
2018-01-13T07:46:17.089Z,404
2018-01-13T07:47:19.486Z,412
2018-01-13T07:48:21.897Z,424
2018-01-13T07:49:24.302Z,412
2018-01-13T07:50:26.714Z,420
2018-01-13T07:51:29.112Z,416
2018-01-13T07:52:31.814Z,432
2018-01-13T07:53:34.216Z,428
2018-01-13T07:54:36.620Z,448
2018-01-13T07:55:39.025Z,488
2018-01-13T07:56:41.430Z,500
2018-01-13T07:57:44.125Z,528
2018-01-13T07:58:46.550Z,560
2018-01-13T07:59:48.947Z,572
2018-01-13T08:00:51.351Z,568
2018-01-13T08:01:53.758Z,552
2018-01-13T08:02:56.156Z,604
2018-01-13T08:03:58.566Z,608
2018-01-13T08:05:00.975Z,556
2018-01-13T08:06:03.375Z,552
2018-01-13T08:07:05.776Z,540
2018-01-13T08:08:08.191Z,556
2018-01-13T08:09:10.581Z,532
2018-01-13T08:10:12.988Z,516
2018-01-13T08:11:15.400Z,612
2018-01-13T08:12:17.804Z,680
2018-01-13T08:13:20.482Z,668
2018-01-13T08:14:23.451Z,704
2018-01-13T08:15:25.860Z,668
2018-01-13T08:16:28.276Z,680
2018-01-13T08:17:30.683Z,796
2018-01-13T08:18:33.088Z,828
2018-01-13T08:19:35.496Z,836
2018-01-13T08:20:37.911Z,916
2018-01-13T08:21:40.315Z,920
2018-01-13T08:22:42.714Z,872
2018-01-13T08:23:45.131Z,872
2018-01-13T08:24:47.536Z,924
2018-01-13T08:25:49.928Z,1016
2018-01-13T08:26:52.339Z,964
2018-01-13T08:27:55.036Z,940
2018-01-13T08:28:57.445Z,1044
2018-01-13T08:30:00.141Z,1072
2018-01-13T08:31:02.538Z,1132
2018-01-13T08:32:04.937Z,1160
2018-01-13T08:33:07.364Z,1188
2018-01-13T08:34:09.766Z,1236
2018-01-13T08:35:12.463Z,1164
2018-01-13T08:36:14.879Z,1232
2018-01-13T08:37:17.275Z,1260
2018-01-13T08:38:19.684Z,1260
2018-01-13T08:39:22.091Z,1340
2018-01-13T08:40:24.488Z,1312
2018-01-13T08:41:26.894Z,1280
2018-01-13T08:42:29.303Z,1620
2018-01-13T08:43:31.712Z,1608
2018-01-13T08:44:34.113Z,1600
2018-01-13T08:45:36.519Z,1668
2018-01-13T08:46:38.926Z,1668
2018-01-13T08:47:41.616Z,1768
2018-01-13T08:48:44.019Z,1576
2018-01-13T08:49:46.432Z,1524
2018-01-13T08:50:48.833Z,1656
2018-01-13T08:51:51.246Z,1612
2018-01-13T08:52:53.933Z,1592
2018-01-13T08:53:56.334Z,1696
2018-01-13T08:54:58.744Z,1704
2018-01-13T08:56:01.157Z,1568
2018-01-13T08:57:03.556Z,1744
2018-01-13T08:58:05.968Z,1848
2018-01-13T08:59:08.383Z,1812
2018-01-13T09:00:11.070Z,1784
2018-01-13T09:01:13.468Z,2004
2018-01-13T09:02:15.874Z,1892
2018-01-13T09:03:18.278Z,1832
2018-01-13T09:04:20.693Z,1760
2018-01-13T09:05:23.387Z,1864
2018-01-13T09:06:25.778Z,1852
2018-01-13T09:07:28.182Z,1944
2018-01-13T09:08:30.572Z,1980
2018-01-13T09:09:32.988Z,1772
2018-01-13T09:10:35.389Z,1928
2018-01-13T09:11:37.796Z,1964
2018-01-13T09:12:40.200Z,1848
2018-01-13T09:13:42.615Z,1792
2018-01-13T09:14:45.018Z,1904
2018-01-13T09:15:47.434Z,1868
2018-01-13T09:16:49.837Z,1992
2018-01-13T09:17:52.238Z,2056
2018-01-13T09:18:54.650Z,2016
2018-01-13T09:19:57.063Z,1952
2018-01-13T09:20:59.457Z,1936
2018-01-13T09:22:01.870Z,1912
2018-01-13T09:23:04.553Z,2144
2018-01-13T09:24:06.965Z,2104
2018-01-13T09:25:09.374Z,2072
2018-01-13T09:26:11.783Z,2052
2018-01-13T09:27:14.486Z,1992
2018-01-13T09:28:17.162Z,2036
2018-01-13T09:29:19.572Z,2132
2018-01-13T09:30:21.971Z,2200
2018-01-13T09:31:24.657Z,2148
2018-01-13T09:32:27.062Z,2264
2018-01-13T09:33:29.463Z,2252
2018-01-13T09:34:31.877Z,2320
2018-01-13T09:35:34.289Z,2424
2018-01-13T09:36:36.706Z,2380
2018-01-13T09:37:39.101Z,2440
2018-01-13T09:38:41.518Z,2388
2018-01-13T09:39:43.911Z,2380
2018-01-13T09:40:46.315Z,2456
2018-01-13T09:41:48.737Z,2312
2018-01-13T09:42:51.136Z,2528
2018-01-13T09:43:53.868Z,2604
2018-01-13T09:44:56.284Z,2600
2018-01-13T09:45:58.684Z,2648
2018-01-13T09:47:01.094Z,2472
2018-01-13T09:48:03.793Z,2504
2018-01-13T09:49:06.189Z,2556
2018-01-13T09:50:08.596Z,2688
2018-01-13T09:51:11.320Z,2908
2018-01-13T09:52:13.737Z,2908
2018-01-13T09:53:16.141Z,2936
2018-01-13T09:54:18.538Z,3040
2018-01-13T09:55:20.947Z,3104
2018-01-13T09:56:23.360Z,3136
2018-01-13T09:57:25.767Z,3240
2018-01-13T09:58:28.171Z,3324
2018-01-13T09:59:30.857Z,3272
2018-01-13T10:00:33.259Z,3320
2018-01-13T10:01:35.672Z,3276
2018-01-13T10:02:38.078Z,3376
2018-01-13T10:03:40.792Z,3500
2018-01-13T10:04:43.174Z,3516
2018-01-13T10:05:45.592Z,3592
2018-01-13T10:06:48.279Z,3568
2018-01-13T10:07:50.982Z,3620
2018-01-13T10:08:53.385Z,3664
2018-01-13T10:09:55.792Z,3852
2018-01-13T10:10:58.203Z,4268
2018-01-13T10:12:00.611Z,4004
2018-01-13T10:13:03.014Z,4176
2018-01-13T10:14:05.439Z,4436
2018-01-13T10:15:07.827Z,4300
2018-01-13T10:16:10.285Z,4936
2018-01-13T10:17:12.646Z,5064
2018-01-13T10:18:15.056Z,4892
2018-01-13T10:19:17.460Z,4780
2018-01-13T10:20:19.866Z,5124
2018-01-13T10:21:22.276Z,5120
2018-01-13T10:22:24.676Z,4748
2018-01-13T10:23:27.088Z,4432
2018-01-13T10:24:29.492Z,4740
2018-01-13T10:25:31.895Z,5252
2018-01-13T10:26:34.872Z,5736
2018-01-13T10:27:37.274Z,5436
2018-01-13T10:28:39.672Z,5512
2018-01-13T10:29:42.083Z,5484
2018-01-13T10:30:44.808Z,5736
2018-01-13T10:31:47.214Z,5744
2018-01-13T10:32:49.908Z,5656
2018-01-13T10:33:52.316Z,5704
2018-01-13T10:34:54.714Z,5392
2018-01-13T10:35:57.429Z,4872
2018-01-13T10:36:59.837Z,4900
2018-01-13T10:38:02.240Z,5092
2018-01-13T10:39:04.658Z,5340
2018-01-13T10:40:07.063Z,5288
2018-01-13T10:41:09.459Z,5452
2018-01-13T10:42:11.866Z,5220
2018-01-13T10:43:14.599Z,5216
2018-01-13T10:44:17.285Z,5200
2018-01-13T10:45:19.975Z,5368
2018-01-13T10:46:22.372Z,5392
2018-01-13T10:47:24.773Z,5832
2018-01-13T10:48:27.197Z,5616
2018-01-13T10:49:29.589Z,5628
2018-01-13T10:50:32.002Z,5744
2018-01-13T10:51:34.403Z,5568
2018-01-13T10:52:36.820Z,5544
2018-01-13T10:53:39.213Z,5592
2018-01-13T10:54:41.906Z,5288
2018-01-13T10:55:44.317Z,5524
2018-01-13T10:56:46.722Z,5596
2018-01-13T10:57:49.426Z,5712
2018-01-13T10:58:51.832Z,5844
2018-01-13T10:59:54.239Z,5936
2018-01-13T11:00:56.948Z,6028
2018-01-13T11:01:59.638Z,5956
2018-01-13T11:03:02.041Z,5964
2018-01-13T11:04:04.450Z,5960
2018-01-13T11:05:06.862Z,5892
2018-01-13T11:06:09.547Z,5752
2018-01-13T11:07:11.962Z,5484
2018-01-13T11:08:14.361Z,6020
2018-01-13T11:09:16.775Z,6004
2018-01-13T11:10:19.183Z,6116
2018-01-13T11:11:21.591Z,6084
2018-01-13T11:12:23.991Z,6044
2018-01-13T11:13:26.404Z,6020
2018-01-13T11:14:28.813Z,6108
2018-01-13T11:15:31.510Z,6112
2018-01-13T11:16:33.909Z,6128
2018-01-13T11:17:36.602Z,6212
2018-01-13T11:18:39.056Z,6244
2018-01-13T11:19:41.420Z,6312
2018-01-13T11:20:43.827Z,6404
2018-01-13T11:21:46.224Z,6384
2018-01-13T11:22:48.638Z,6352
2018-01-13T11:23:51.038Z,6408
2018-01-13T11:24:53.445Z,6612
2018-01-13T11:25:55.849Z,6712
2018-01-13T11:26:58.273Z,6740
2018-01-13T11:28:00.952Z,6700
2018-01-13T11:29:03.373Z,6672
2018-01-13T11:30:05.784Z,6640
2018-01-13T11:31:08.188Z,6764
2018-01-13T11:32:10.596Z,6808
2018-01-13T11:33:13.005Z,6804
2018-01-13T11:34:15.400Z,6788
2018-01-13T11:35:17.813Z,6788
2018-01-13T11:36:20.212Z,6872
2018-01-13T11:37:22.622Z,6868
2018-01-13T11:38:25.026Z,6944
2018-01-13T11:39:27.441Z,7056
2018-01-13T11:40:29.850Z,7116
2018-01-13T11:41:32.267Z,7120
2018-01-13T11:42:34.675Z,7116
2018-01-13T11:43:37.088Z,7096
2018-01-13T11:44:39.780Z,7088
2018-01-13T11:45:42.182Z,7108
2018-01-13T11:46:44.585Z,7240
2018-01-13T11:47:47.002Z,7372
2018-01-13T11:48:49.682Z,7440
2018-01-13T11:49:52.099Z,7440
2018-01-13T11:50:54.503Z,7368
2018-01-13T11:51:56.920Z,7284
2018-01-13T11:52:59.324Z,7196
2018-01-13T11:54:01.720Z,7212
2018-01-13T11:55:04.143Z,7172
2018-01-13T11:56:06.832Z,7140
2018-01-13T11:57:09.238Z,7000
2018-01-13T11:58:11.641Z,7096
2018-01-13T11:59:14.047Z,7320
2018-01-13T12:00:16.452Z,7376
2018-01-13T12:01:19.157Z,7336
2018-01-13T12:02:21.554Z,7304
2018-01-13T12:03:23.961Z,7156
2018-01-13T12:04:26.379Z,7168
2018-01-13T12:05:28.792Z,7292
2018-01-13T12:06:31.199Z,7292
2018-01-13T12:07:33.598Z,7332
2018-01-13T12:08:35.999Z,7384
2018-01-13T12:09:38.416Z,7512
2018-01-13T12:10:40.825Z,7660
2018-01-13T12:11:43.240Z,7564
2018-01-13T12:12:45.631Z,7460
2018-01-13T12:13:48.045Z,7388
2018-01-13T12:14:50.446Z,7584
2018-01-13T12:15:52.865Z,7536
2018-01-13T12:16:55.255Z,7392
2018-01-13T12:17:57.663Z,7660
2018-01-13T12:19:00.079Z,7664
2018-01-13T12:20:02.487Z,7512
2018-01-13T12:21:04.899Z,7448
2018-01-13T12:22:07.299Z,7484
2018-01-13T12:23:09.699Z,7604
2018-01-13T12:24:12.394Z,7728
2018-01-13T12:25:15.086Z,7980
2018-01-13T12:26:17.533Z,8052
2018-01-13T12:27:19.911Z,8060
2018-01-13T12:28:22.312Z,7844
2018-01-13T12:29:25.006Z,7820
2018-01-13T12:30:27.415Z,7708
2018-01-13T12:31:29.824Z,7700
2018-01-13T12:32:32.235Z,6404
2018-01-13T12:33:34.643Z,6108
2018-01-13T12:34:37.340Z,7212
2018-01-13T12:35:39.747Z,6672
2018-01-13T12:36:42.154Z,7200
2018-01-13T12:37:44.560Z,7848
2018-01-13T12:38:46.967Z,7828
2018-01-13T12:39:49.374Z,8016
2018-01-13T12:40:51.793Z,8088
2018-01-13T12:41:54.191Z,8436
2018-01-13T12:42:56.604Z,8256
2018-01-13T12:43:59.009Z,8192
2018-01-13T12:45:01.437Z,8220
2018-01-13T12:46:04.134Z,8096
2018-01-13T12:47:06.536Z,8336
2018-01-13T12:48:08.944Z,8228
2018-01-13T12:49:11.642Z,7788
2018-01-13T12:50:14.057Z,7208
2018-01-13T12:51:16.468Z,6720
2018-01-13T12:52:18.860Z,6728
2018-01-13T12:53:21.271Z,6548
2018-01-13T12:54:23.682Z,6588
2018-01-13T12:55:26.086Z,6652
2018-01-13T12:56:28.491Z,6352
2018-01-13T12:57:31.176Z,6224
2018-01-13T12:58:33.584Z,6232
2018-01-13T12:59:36.281Z,5992
2018-01-13T13:00:38.684Z,5736
2018-01-13T13:01:41.082Z,5584
2018-01-13T13:02:43.490Z,5356
2018-01-13T13:03:46.177Z,5140
2018-01-13T13:04:48.588Z,5424
2018-01-13T13:05:51.000Z,5820
2018-01-13T13:06:53.398Z,5664
2018-01-13T13:07:55.804Z,5456
2018-01-13T13:08:58.224Z,5248
2018-01-13T13:10:00.627Z,5004
2018-01-13T13:11:03.032Z,5964
2018-01-13T13:12:05.440Z,6196
2018-01-13T13:13:08.180Z,5588
2018-01-13T13:14:10.599Z,5184
2018-01-13T13:15:13.011Z,4788
2018-01-13T13:16:15.407Z,5228
2018-01-13T13:17:18.376Z,5376
2018-01-13T13:18:20.792Z,5416
2018-01-13T13:19:23.197Z,5212
2018-01-13T13:20:25.603Z,4404
2018-01-13T13:21:28.005Z,4972
2018-01-13T13:22:30.414Z,5304
2018-01-13T13:23:32.818Z,4440
2018-01-13T13:24:35.222Z,4420
2018-01-13T13:25:37.632Z,5212
2018-01-13T13:26:40.028Z,5448
2018-01-13T13:27:42.443Z,5472
2018-01-13T13:28:44.849Z,5756
2018-01-13T13:29:47.256Z,5984
2018-01-13T13:30:49.666Z,6180
2018-01-13T13:31:52.379Z,6176
2018-01-13T13:32:54.786Z,5936
2018-01-13T13:33:57.206Z,5556
2018-01-13T13:34:59.618Z,5456
2018-01-13T13:36:02.025Z,5492
2018-01-13T13:37:04.433Z,5204
2018-01-13T13:38:06.854Z,4508
2018-01-13T13:39:09.230Z,4500
2018-01-13T13:40:11.648Z,4576
2018-01-13T13:41:14.047Z,4396
2018-01-13T13:42:16.742Z,3988
2018-01-13T13:43:19.144Z,4200
2018-01-13T13:44:21.552Z,4248
2018-01-13T13:45:23.956Z,4260
2018-01-13T13:46:26.365Z,4416
2018-01-13T13:47:28.761Z,4604
2018-01-13T13:48:31.169Z,4600
2018-01-13T13:49:33.585Z,4452
2018-01-13T13:50:36.353Z,4724
2018-01-13T13:51:38.765Z,4792
2018-01-13T13:52:41.172Z,4608
2018-01-13T13:53:43.577Z,4344
2018-01-13T13:54:45.988Z,4256
2018-01-13T13:55:48.392Z,4280
2018-01-13T13:56:50.804Z,4324
2018-01-13T13:57:53.214Z,4400
2018-01-13T13:58:55.601Z,4344
2018-01-13T13:59:58.017Z,4292
2018-01-13T14:01:22.124Z,4148
2018-01-13T14:02:30.101Z,3784
2018-01-13T14:03:32.505Z,3280
2018-01-13T14:04:34.915Z,2884
2018-01-13T14:05:37.306Z,2720
2018-01-13T14:06:39.727Z,2828
2018-01-13T14:07:42.129Z,2860
2018-01-13T14:08:44.533Z,2888
2018-01-13T14:09:46.949Z,2564
2018-01-13T14:10:49.352Z,2476
2018-01-13T14:11:51.763Z,2492
2018-01-13T14:12:54.172Z,2444
2018-01-13T14:13:56.584Z,2284
2018-01-13T14:14:59.559Z,2164
2018-01-13T14:16:01.975Z,2252
2018-01-13T14:17:04.375Z,2312
2018-01-13T14:18:06.783Z,2336
2018-01-13T14:19:09.193Z,2448
2018-01-13T14:20:11.611Z,2628
2018-01-13T14:21:14.291Z,2724
2018-01-13T14:22:16.979Z,2616
2018-01-13T14:23:19.399Z,2504
2018-01-13T14:24:22.088Z,2332
2018-01-13T14:25:24.487Z,2092
2018-01-13T14:26:26.901Z,1896
2018-01-13T14:27:29.300Z,2000
2018-01-13T14:28:31.700Z,2084
2018-01-13T14:29:34.104Z,1940
2018-01-13T14:30:36.505Z,1856
2018-01-13T14:31:38.906Z,1848
2018-01-13T14:32:41.324Z,1844
2018-01-13T14:33:43.728Z,1768
2018-01-13T14:34:46.126Z,1768
2018-01-13T14:35:48.529Z,1656
2018-01-13T14:36:51.497Z,1576
2018-01-13T14:37:53.913Z,1492